Time;durP1;ratioP1;P1;durP2;ratioP2;P2;SDS_P1;SDS_P2;PMS_P1;PMS_P2;Temp;Humidity;BMP_temperature;BMP_pressure;BME280_temperature;BME280_humidity;BME280_pressure;Samples;Min_cycle;Max_cycle;Signal;HPM_P1;HPM_P2
2022/02/09 00:07:16;;;;;;;9.53;7.50;;;10.50;99.90;;;;;;5054023;28;20164;-91
2022/02/09 00:09:45;;;;;;;10.77;8.27;;;10.40;99.90;;;;;;5035975;28;20203;-92
2022/02/09 00:12:27;;;;;;;10.73;7.53;;;10.40;99.90;;;;;;5036376;28;20663;-92
2022/02/09 00:28:07;;;;;;;10.80;7.00;;;10.60;99.90;;;;;;5053770;28;20187;-92
2022/02/09 00:39:07;;;;;;;9.07;6.20;;;10.50;99.90;;;;;;5053467;28;20644;-92
2022/02/09 01:12:02;;;;;;;10.57;5.73;;;10.60;99.90;;;;;;5048476;28;20195;-93
2022/02/09 01:57:52;;;;;;;3.90;2.93;;;10.80;99.90;;;;;;5052813;28;20171;-91
2022/02/09 02:00:18;;;;;;;5.47;3.10;;;10.80;99.90;;;;;;5035790;28;20176;-93
2022/02/09 02:02:44;;;;;;;4.00;2.73;;;10.80;99.90;;;;;;5037070;28;20167;-92
2022/02/09 02:05:09;;;;;;;5.20;2.90;;;10.70;99.90;;;;;;5038885;28;20179;-92
2022/02/09 02:08:10;;;;;;;5.03;2.70;;;10.80;99.90;;;;;;5038962;28;20172;-92
2022/02/09 02:10:50;;;;;;;7.00;3.00;;;10.90;99.90;;;;;;5053058;28;20200;-92
2022/02/09 02:16:50;;;;;;;3.03;2.27;;;10.90;99.90;;;;;;5056247;28;20159;-92
2022/02/09 02:19:00;;;;;;;4.60;2.50;;;10.80;99.90;;;;;;5045451;28;20202;-92
2022/02/09 02:29:31;;;;;;;4.10;2.40;;;10.90;99.90;;;;;;5056400;28;20511;-93
2022/02/09 02:37:32;;;;;;;2.67;2.30;;;10.90;99.90;;;;;;5056028;28;20251;-92
2022/02/09 03:12:43;;;;;;;8.00;5.33;;;10.60;99.90;;;;;;5055173;28;20689;-92
2022/02/09 03:17:44;;;;;;;10.63;5.47;;;10.60;99.90;;;;;;5055188;28;20171;-92
2022/02/09 03:20:30;;;;;;;9.73;5.70;;;10.60;99.90;;;;;;5037182;28;20172;-92
2022/02/09 03:26:20;;;;;;;9.47;5.47;;;10.60;99.90;;;;;;5055061;28;20203;-92
2022/02/09 03:55:23;;;;;;;9.43;5.43;;;10.60;99.90;;;;;;5054218;28;20179;-93
2022/02/09 03:57:48;;;;;;;9.40;5.73;;;10.70;99.90;;;;;;5036558;28;20178;-92
2022/02/09 04:00:17;;;;;;;9.47;6.17;;;10.60;99.90;;;;;;5036334;28;20597;-92
2022/02/09 04:02:51;;;;;;;10.13;6.07;;;10.50;99.90;;;;;;5036462;28;20176;-93
2022/02/09 04:05:18;;;;;;;8.13;6.37;;;10.50;99.90;;;;;;5036434;28;20233;-92
2022/02/09 04:07:44;;;;;;;11.37;6.63;;;10.50;99.90;;;;;;5037754;28;20179;-93
2022/02/09 04:10:16;;;;;;;9.00;6.30;;;10.50;99.90;;;;;;5036291;28;20658;-92
2022/02/09 04:12:59;;;;;;;9.17;6.13;;;10.50;99.90;;;;;;5036386;28;20295;-92
2022/02/09 04:15:41;;;;;;;9.77;6.70;;;10.60;99.90;;;;;;5042810;28;20199;-92
2022/02/09 04:37:22;;;;;;;10.27;7.03;;;10.50;99.90;;;;;;5053749;28;20251;-92
2022/02/09 04:40:03;;;;;;;11.67;6.90;;;10.50;99.90;;;;;;5035710;28;20177;-92
2022/02/09 04:48:01;;;;;;;10.53;6.53;;;10.60;99.90;;;;;;5053899;28;20635;-92
2022/02/09 04:51:17;;;;;;;12.30;7.37;;;10.50;99.90;;;;;;5035220;28;20270;-92
2022/02/09 04:54:11;;;;;;;9.97;7.13;;;10.50;99.90;;;;;;5045039;28;20235;-92
2022/02/09 04:56:21;;;;;;;10.23;7.33;;;10.50;99.90;;;;;;5052879;28;20174;-92
2022/02/09 04:59:05;;;;;;;9.57;7.20;;;10.60;99.90;;;;;;5035489;28;20258;-91
2022/02/09 05:21:20;;;;;;;11.83;7.27;;;10.40;99.90;;;;;;4999151;28;20275;-92
2022/02/09 05:23:46;;;;;;;11.27;7.13;;;10.40;99.90;;;;;;5052993;28;20599;-92
2022/02/09 05:28:43;;;;;;;16.33;8.03;;;10.40;99.90;;;;;;5053024;28;20179;-92
2022/02/09 05:31:10;;;;;;;11.03;7.57;;;10.50;99.90;;;;;;5035246;28;20164;-92
2022/02/09 05:33:36;;;;;;;12.07;7.23;;;10.50;99.90;;;;;;5035064;28;20210;-92
2022/02/09 05:36:02;;;;;;;10.77;7.67;;;10.60;99.90;;;;;;5035059;28;20179;-92
2022/02/09 05:38:28;;;;;;;9.70;7.23;;;10.60;99.90;;;;;;5038445;28;20180;-92
2022/02/09 05:40:54;;;;;;;10.13;7.27;;;10.50;99.90;;;;;;5039097;28;20290;-92
2022/02/09 05:43:22;;;;;;;10.80;7.93;;;10.40;99.90;;;;;;5039437;28;20643;-92
2022/02/09 05:51:22;;;;;;;10.37;7.93;;;10.30;99.90;;;;;;5036564;28;20195;-92
2022/02/09 05:56:43;;;;;;;12.17;7.47;;;10.10;99.90;;;;;;5056410;28;20267;-93
2022/02/09 06:01:51;;;;;;;11.87;8.30;;;10.20;99.90;;;;;;5036460;28;20250;-92
2022/02/09 06:04:17;;;;;;;11.00;6.90;;;10.20;99.90;;;;;;5035385;28;20258;-92
2022/02/09 06:06:43;;;;;;;11.40;7.57;;;10.20;99.90;;;;;;5035309;28;20201;-92
2022/02/09 06:09:09;;;;;;;11.53;7.07;;;10.10;99.90;;;;;;5035185;28;20282;-92
2022/02/09 06:22:04;;;;;;;9.67;5.63;;;10.30;99.90;;;;;;5036978;28;20239;-92
2022/02/09 06:24:31;;;;;;;8.97;5.77;;;10.10;99.90;;;;;;5035457;28;20164;-93
2022/02/09 06:26:58;;;;;;;7.87;5.57;;;10.10;99.90;;;;;;5035598;28;20176;-92
2022/02/09 06:29:26;;;;;;;9.37;5.60;;;10.20;99.90;;;;;;5035669;28;20534;-93
2022/02/09 06:31:55;;;;;;;7.63;5.67;;;10.20;99.90;;;;;;5035258;28;20621;-93
2022/02/09 06:34:23;;;;;;;8.30;6.00;;;10.10;99.90;;;;;;5034998;28;20281;-93
2022/02/09 06:36:59;;;;;;;8.07;5.17;;;10.10;99.90;;;;;;5035289;28;20169;-93
2022/02/09 06:39:29;;;;;;;10.47;5.53;;;10.10;99.90;;;;;;5036338;28;20311;-92
2022/02/09 06:41:54;;;;;;;8.80;5.07;;;10.10;99.90;;;;;;5035691;28;20229;-92
2022/02/09 06:44:29;;;;;;;7.73;5.17;;;10.20;99.90;;;;;;5035364;28;20172;-92
2022/02/09 06:46:58;;;;;;;9.87;5.43;;;10.20;99.90;;;;;;5035294;28;20620;-94
2022/02/09 06:49:32;;;;;;;9.53;5.77;;;10.30;99.90;;;;;;5034032;28;20168;-93
2022/02/09 06:52:56;;;;;;;;;;;;;;;;;;;;;
2022/02/09 06:55:25;;;;;;;10.13;5.90;;;10.20;99.90;;;;;;5036232;28;20178;-94
2022/02/09 06:58:01;;;;;;;9.20;5.30;;;10.20;99.90;;;;;;5034880;28;20162;-95
2022/02/09 07:00:31;;;;;;;7.90;5.53;;;10.10;99.90;;;;;;5034911;28;20176;-95
2022/02/09 07:02:57;;;;;;;8.60;5.77;;;10.00;99.90;;;;;;5035254;28;20194;-92
2022/02/09 07:05:23;;;;;;;9.63;5.70;;;10.00;99.90;;;;;;5042215;28;20625;-91
2022/02/09 07:07:48;;;;;;;7.70;5.40;;;10.10;99.90;;;;;;5041665;28;20227;-91
2022/02/09 07:10:14;;;;;;;9.50;5.57;;;10.10;99.90;;;;;;5033726;28;20453;-92
2022/02/09 07:12:41;;;;;;;8.73;5.43;;;10.10;99.90;;;;;;5033710;28;20212;-91
2022/02/09 07:15:10;;;;;;;9.53;5.30;;;10.10;99.90;;;;;;5033552;28;20160;-91
2022/02/09 07:17:37;;;;;;;8.00;4.50;;;10.20;99.90;;;;;;5034311;28;20167;-90
2022/02/09 07:20:23;;;;;;;9.97;5.97;;;10.20;99.90;;;;;;5034038;28;20648;-90
2022/02/09 07:22:52;;;;;;;7.73;4.63;;;10.20;99.90;;;;;;5033987;28;20173;-91
2022/02/09 07:25:20;;;;;;;7.50;4.60;;;10.20;99.90;;;;;;5033999;28;20168;-91
2022/02/09 07:27:51;;;;;;;7.03;4.60;;;10.30;99.90;;;;;;5031815;28;20168;-85
2022/02/09 07:30:22;;;;;;;9.10;4.77;;;10.30;99.90;;;;;;5072965;28;20220;-86
2022/02/09 07:33:02;;;;;;;10.13;4.80;;;10.30;99.90;;;;;;5073153;28;20199;-86
2022/02/09 07:35:28;;;;;;;6.00;4.50;;;10.40;99.90;;;;;;5072925;28;20173;-86
2022/02/09 07:37:53;;;;;;;9.97;4.93;;;10.50;99.90;;;;;;5072828;28;20198;-85
2022/02/09 07:40:19;;;;;;;10.27;5.10;;;10.40;99.90;;;;;;5073009;28;20179;-85
2022/02/09 07:42:49;;;;;;;8.97;4.90;;;10.50;99.90;;;;;;5072604;28;20174;-85
2022/02/09 07:48:13;;;;;;;7.67;4.93;;;10.30;99.90;;;;;;5073940;28;20862;-85
2022/02/09 07:50:46;;;;;;;11.50;5.57;;;10.30;99.90;;;;;;5072551;28;20197;-85
2022/02/09 07:53:23;;;;;;;11.13;5.43;;;10.20;99.90;;;;;;5055826;28;20342;-86
2022/02/09 07:55:48;;;;;;;13.37;6.37;;;10.20;99.90;;;;;;5071818;28;20177;-86
2022/02/09 07:58:14;;;;;;;9.17;5.90;;;10.20;99.90;;;;;;5058653;28;20190;-85
2022/02/09 08:00:40;;;;;;;13.50;6.60;;;10.30;99.90;;;;;;5035800;28;20647;-85
2022/02/09 08:03:06;;;;;;;11.63;6.43;;;10.30;99.90;;;;;;5035646;28;20175;-87
2022/02/09 08:05:32;;;;;;;12.77;6.67;;;10.30;99.90;;;;;;5052119;28;20698;-87
2022/02/09 08:07:59;;;;;;;10.57;6.77;;;10.40;99.90;;;;;;5053307;28;20199;-85
2022/02/09 08:10:38;;;;;;;9.40;5.57;;;10.30;99.90;;;;;;5052606;28;20199;-86
2022/02/09 08:34:11;;;;;;;12.90;6.77;;;10.50;99.90;;;;;;5033833;28;20283;-85
2022/02/09 08:36:37;;;;;;;12.07;7.07;;;10.30;99.90;;;;;;5015993;28;20175;-84
2022/02/09 08:39:04;;;;;;;11.70;6.37;;;10.20;99.90;;;;;;5015810;28;20626;-85
2022/02/09 08:41:30;;;;;;;12.20;7.20;;;10.20;99.90;;;;;;5015579;28;20229;-85
2022/02/09 08:43:56;;;;;;;14.27;6.70;;;10.20;99.90;;;;;;5033494;28;20252;-85
2022/02/09 08:46:22;;;;;;;11.17;6.73;;;10.30;99.90;;;;;;5015541;28;20288;-85
2022/02/09 08:48:47;;;;;;;11.90;6.30;;;10.30;99.90;;;;;;5033401;28;20422;-85
2022/02/09 08:51:14;;;;;;;11.53;6.93;;;10.30;99.90;;;;;;5015268;28;20262;-85
2022/02/09 08:53:40;;;;;;;11.13;7.07;;;10.50;99.90;;;;;;5015556;28;20258;-85
2022/02/09 08:56:09;;;;;;;15.40;7.37;;;10.40;99.90;;;;;;5015187;28;20251;-86
2022/02/09 08:58:36;;;;;;;12.60;6.97;;;10.40;99.90;;;;;;5015720;28;20187;-85
2022/02/09 09:01:11;;;;;;;12.77;6.53;;;10.50;99.90;;;;;;5015583;28;20164;-85
2022/02/09 09:03:58;;;;;;;12.37;6.87;;;10.50;99.90;;;;;;5015663;28;20176;-85
2022/02/09 09:06:26;;;;;;;9.53;5.97;;;10.40;99.90;;;;;;5015540;28;20172;-86
2022/02/09 10:33:58;;;;;;;12.50;4.97;;;11.90;99.90;;;;;;5035956;28;20289;-85
2022/02/09 10:36:24;;;;;;;10.03;5.10;;;11.90;99.90;;;;;;5017831;28;20259;-85
2022/02/09 10:39:10;;;;;;;13.13;5.93;;;12.10;99.90;;;;;;5035618;28;20291;-84
2022/02/09 10:41:48;;;;;;;12.90;5.73;;;11.90;99.90;;;;;;5018178;28;20208;-85
2022/02/09 10:44:16;;;;;;;17.07;6.60;;;11.90;99.90;;;;;;5017577;28;20172;-85
2022/02/09 10:46:52;;;;;;;13.23;5.43;;;12.10;99.90;;;;;;5018092;28;20519;-85
2022/02/09 10:49:21;;;;;;;10.60;5.33;;;12.20;99.90;;;;;;5017775;28;20164;-84
2022/02/09 10:51:54;;;;;;;10.00;5.53;;;12.20;99.90;;;;;;5017654;28;20192;-85
2022/02/09 10:54:23;;;;;;;11.33;5.40;;;12.20;99.90;;;;;;5017767;28;20683;-84
2022/02/09 10:57:02;;;;;;;10.47;5.20;;;12.10;99.90;;;;;;5017590;28;20168;-85
2022/02/09 10:59:30;;;;;;;9.63;5.20;;;12.10;99.90;;;;;;5017806;28;20180;-85
2022/02/09 11:02:00;;;;;;;15.50;6.33;;;12.20;99.90;;;;;;5017718;28;20203;-84
2022/02/09 11:04:27;;;;;;;11.17;5.83;;;12.30;99.90;;;;;;5017152;28;20644;-84
2022/02/09 11:06:53;;;;;;;12.00;5.77;;;12.40;99.90;;;;;;5034962;28;20253;-84
2022/02/09 11:09:21;;;;;;;16.57;6.17;;;12.40;99.90;;;;;;5017427;28;20197;-85
2022/02/09 11:11:47;;;;;;;14.77;6.73;;;12.50;99.90;;;;;;5017669;28;20182;-84
2022/02/09 11:14:16;;;;;;;16.07;7.53;;;12.50;99.90;;;;;;5016943;28;20246;-84
2022/02/09 11:16:52;;;;;;;13.67;7.90;;;12.50;99.90;;;;;;5017380;28;20164;-85
2022/02/09 11:19:19;;;;;;;15.77;7.80;;;12.50;99.90;;;;;;5017198;28;20180;-84
2022/02/09 11:21:50;;;;;;;13.37;7.90;;;12.60;99.90;;;;;;5017218;28;20572;-84
2022/02/09 11:24:18;;;;;;;18.20;8.47;;;12.60;99.90;;;;;;5016726;28;20202;-84
2022/02/09 11:35:23;;;;;;;11.80;7.20;;;12.60;99.90;;;;;;5033693;28;20337;-85
2022/02/09 12:11:36;;;;;;;4.27;2.57;;;13.40;99.90;;;;;;5034205;28;20192;-85
2022/02/09 12:17:13;;;;;;;7.10;2.87;;;13.20;99.90;;;;;;5036639;28;20174;-83
2022/02/09 12:19:47;;;;;;;5.23;3.10;;;13.30;99.90;;;;;;5037435;28;20500;-83
2022/02/09 12:22:18;;;;;;;7.47;2.13;;;13.40;99.90;;;;;;5018807;28;20651;-84
2022/02/09 12:24:44;;;;;;;4.73;2.17;;;13.40;99.90;;;;;;5016805;28;20712;-84
2022/02/09 12:27:12;;;;;;;3.33;2.23;;;13.60;99.90;;;;;;5033272;28;20237;-84
2022/02/09 12:29:46;;;;;;;3.30;2.00;;;13.70;99.90;;;;;;5035909;28;20176;-84
2022/02/09 12:32:15;;;;;;;3.50;2.23;;;13.60;99.90;;;;;;5030131;28;20307;-84
2022/02/09 12:34:55;;;;;;;4.37;2.00;;;13.50;99.90;;;;;;5014925;28;20275;-85
2022/02/09 12:37:21;;;;;;;3.00;1.90;;;13.40;99.90;;;;;;5014444;28;20168;-85
2022/02/09 12:39:50;;;;;;;3.70;2.10;;;13.50;99.90;;;;;;5015981;28;20174;-85
2022/02/09 12:42:18;;;;;;;3.70;2.10;;;13.70;99.90;;;;;;5015628;28;20660;-85
2022/02/09 12:44:57;;;;;;;3.90;2.13;;;13.70;99.90;;;;;;5016175;28;20178;-85
2022/02/09 12:47:28;;;;;;;5.67;2.43;;;13.60;99.90;;;;;;5014820;28;20175;-85
2022/02/09 12:49:54;;;;;;;4.27;2.70;;;13.70;99.90;;;;;;5015993;28;20541;-85
2022/02/09 12:52:26;;;;;;;6.90;2.97;;;13.60;99.90;;;;;;5015443;28;20192;-84
2022/02/09 12:55:28;;;;;;;12.13;3.80;;;13.40;99.90;;;;;;5015662;28;20174;-85
2022/02/09 12:58:05;;;;;;;3.57;1.90;;;13.40;99.90;;;;;;5000040;28;20219;-84
2022/02/09 13:00:38;;;;;;;5.57;2.50;;;13.30;99.90;;;;;;5032910;28;20511;-85
2022/02/09 13:03:06;;;;;;;4.77;2.33;;;12.80;99.90;;;;;;5015480;28;20180;-85
2022/02/09 13:05:40;;;;;;;4.50;2.67;;;12.70;99.90;;;;;;5033157;28;20154;-85
2022/02/09 13:08:06;;;;;;;4.67;2.23;;;12.80;99.90;;;;;;5015314;28;20176;-84
2022/02/09 13:10:38;;;;;;;4.50;1.90;;;12.80;99.90;;;;;;5015216;28;20189;-84
2022/02/09 13:13:10;;;;;;;4.07;2.37;;;13.00;99.90;;;;;;5015440;28;20206;-84
2022/02/09 13:16:08;;;;;;;3.37;1.67;;;13.10;99.90;;;;;;5033055;28;20176;-85
2022/02/09 13:22:18;;;;;;;3.27;2.00;;;13.30;99.90;;;;;;5033355;28;20206;-84
2022/02/09 14:12:24;;;;;;;4.43;2.30;;;13.10;99.90;;;;;;5036676;28;20230;-84
2022/02/09 14:17:23;;;;;;;3.23;1.73;;;13.20;99.90;;;;;;5036000;28;20753;-84
2022/02/09 14:47:08;;;;;;;4.40;2.00;;;13.70;99.90;;;;;;5059528;28;20173;-85
2022/02/09 14:50:52;;;;;;;3.03;1.40;;;13.60;99.90;;;;;;5051312;28;20207;-85
2022/02/09 14:52:36;;;;;;;2.50;1.50;;;13.60;99.90;;;;;;5057004;28;20199;-85
2022/02/09 14:57:37;;;;;;;3.30;2.00;;;13.60;99.90;;;;;;5064829;28;20173;-84
2022/02/09 15:00:10;;;;;;;3.63;1.97;;;13.60;99.90;;;;;;5057426;28;20172;-85
2022/02/09 15:02:51;;;;;;;4.10;2.10;;;13.50;99.90;;;;;;5057307;28;20627;-84
2022/02/09 15:08:12;;;;;;;4.70;1.97;;;13.60;99.90;;;;;;5075516;28;20657;-85
2022/02/09 15:10:46;;;;;;;4.50;2.27;;;13.50;99.90;;;;;;5039014;28;20674;-84
2022/02/09 15:23:23;;;;;;;4.67;2.77;;;13.40;99.90;;;;;;5054863;28;20184;-84
2022/02/09 15:25:49;;;;;;;5.33;2.70;;;13.30;99.90;;;;;;5052403;28;20177;-84
2022/02/09 15:28:14;;;;;;;4.87;2.50;;;13.20;99.90;;;;;;5017304;28;20655;-84
2022/02/09 15:30:47;;;;;;;8.13;2.90;;;13.30;99.90;;;;;;5017336;28;20176;-84
2022/02/09 15:33:16;;;;;;;5.33;2.70;;;13.40;99.90;;;;;;5035502;28;20193;-84
2022/02/09 15:35:42;;;;;;;4.73;2.20;;;13.30;99.90;;;;;;5053117;28;20698;-85
2022/02/09 15:38:14;;;;;;;6.13;2.70;;;13.20;99.90;;;;;;5053396;28;20522;-84
2022/02/09 17:28:26;;;;;;;9.10;3.17;;;12.80;99.90;;;;;;5418761;22;20226;-94
2022/02/09 17:37:01;;;;;;;6.17;3.27;;;12.90;99.90;;;;;;5044205;28;20274;-92
2022/02/09 17:58:19;;;;;;;7.43;4.00;;;13.00;99.90;;;;;;5045392;28;20267;-91
2022/02/09 18:00:50;;;;;;;8.83;4.33;;;12.90;99.90;;;;;;5036770;28;20176;-91
2022/02/09 18:03:19;;;;;;;7.90;4.20;;;13.00;99.90;;;;;;5020351;28;20545;-91
2022/02/09 18:06:13;;;;;;;7.87;4.03;;;13.10;99.90;;;;;;5043833;28;20168;-91
2022/02/09 18:09:00;;;;;;;7.93;4.07;;;13.20;99.90;;;;;;5054475;28;20193;-90
2022/02/09 18:14:26;;;;;;;11.00;4.80;;;13.00;99.90;;;;;;5036139;28;20666;-91
2022/02/09 18:28:55;;;;;;;9.23;5.17;;;12.90;99.90;;;;;;5034681;28;20201;-91
2022/02/09 18:31:08;;;;;;;12.43;5.60;;;12.60;99.90;;;;;;5056073;28;20211;-90
2022/02/09 18:45:00;;;;;;;12.77;5.80;;;13.10;99.90;;;;;;5052992;28;20186;-91
2022/02/09 19:04:46;;;;;;;8.53;5.23;;;12.90;99.90;;;;;;5056034;28;20172;-91
2022/02/09 19:52:31;;;;;;;13.07;7.50;;;12.80;99.90;;;;;;5054511;28;20203;-91
2022/02/09 19:58:19;;;;;;;20.50;13.17;;;12.90;99.90;;;;;;5047533;28;20211;-90
2022/02/09 20:01:10;;;;;;;19.63;16.17;;;12.70;99.90;;;;;;5030751;28;20196;-91
2022/02/09 20:03:40;;;;;;;17.40;13.23;;;12.70;99.90;;;;;;5032341;28;20250;-91
2022/02/09 20:06:14;;;;;;;17.30;10.43;;;12.70;99.90;;;;;;5041794;28;20172;-91
2022/02/09 20:09:05;;;;;;;12.87;8.70;;;12.70;99.90;;;;;;5053127;28;20214;-91
2022/02/09 20:11:32;;;;;;;14.13;7.67;;;12.60;99.90;;;;;;5044764;28;20270;-92
2022/02/09 20:14:28;;;;;;;;;;;;;;;;;;;;;
2022/02/09 20:17:10;;;;;;;12.93;7.43;;;12.60;99.90;;;;;;5034011;28;20167;-91
2022/02/09 20:19:41;;;;;;;12.50;8.20;;;12.50;99.90;;;;;;5034330;28;20185;-91
2022/02/09 20:22:09;;;;;;;14.97;9.93;;;12.40;99.90;;;;;;5026947;28;20601;-92
2022/02/09 20:24:37;;;;;;;14.87;9.27;;;12.60;99.90;;;;;;5027491;28;20258;-89
2022/02/09 20:27:05;;;;;;;12.83;8.97;;;12.70;99.90;;;;;;5032679;28;20242;-90
2022/02/09 20:29:33;;;;;;;12.60;7.77;;;12.50;99.90;;;;;;5049045;28;20191;-89
2022/02/09 20:34:47;;;;;;;14.93;7.30;;;12.30;99.90;;;;;;5041040;28;20227;-89
2022/02/09 20:37:14;;;;;;;14.23;7.77;;;12.30;99.90;;;;;;5052128;28;20183;-89
2022/02/09 20:39:51;;;;;;;12.10;6.87;;;12.50;99.90;;;;;;5040112;28;20180;-89
2022/02/09 20:42:18;;;;;;;12.07;6.80;;;12.50;99.90;;;;;;5048471;28;20222;-89
2022/02/09 20:47:43;;;;;;;10.77;7.07;;;12.30;99.90;;;;;;5051180;28;20178;-89
2022/02/09 20:50:09;;;;;;;18.73;8.63;;;12.30;99.90;;;;;;5042778;28;20179;-88
2022/02/09 20:52:35;;;;;;;15.87;8.37;;;12.30;99.90;;;;;;5051631;28;20241;-89
2022/02/09 20:55:00;;;;;;;14.13;8.03;;;12.30;99.90;;;;;;5035157;28;20168;-89
2022/02/09 20:57:29;;;;;;;20.17;8.10;;;12.40;99.90;;;;;;5032543;28;20211;-90
2022/02/09 21:00:04;;;;;;;13.83;8.37;;;12.30;99.90;;;;;;5033864;28;20572;-91
2022/02/09 21:02:45;;;;;;;14.17;7.70;;;12.20;99.90;;;;;;5035711;28;20171;-90
2022/02/09 21:05:30;;;;;;;13.87;8.20;;;12.20;99.90;;;;;;5021381;28;20254;-90
2022/02/09 21:08:13;;;;;;;13.70;8.63;;;12.30;99.90;;;;;;5034959;28;20188;-91
2022/02/09 21:10:50;;;;;;;11.33;8.33;;;12.30;99.90;;;;;;5035624;28;20219;-90
2022/02/09 21:13:31;;;;;;;19.60;12.77;;;12.30;99.90;;;;;;5034329;28;20205;-90
2022/02/09 21:18:41;;;;;;;15.00;10.20;;;12.10;99.90;;;;;;5050121;28;20274;-91
2022/02/09 21:56:37;;;;;;;17.23;10.60;;;11.90;99.90;;;;;;5035912;28;20184;-90
2022/02/09 22:01:52;;;;;;;15.87;9.00;;;11.70;99.90;;;;;;5050202;28;20180;-90
2022/02/09 22:16:16;;;;;;;15.20;9.07;;;11.90;99.90;;;;;;5050402;28;20341;-90
2022/02/09 22:28:39;;;;;;;15.37;9.83;;;12.10;99.90;;;;;;5055172;28;20188;-89
2022/02/09 22:50:25;;;;;;;19.57;13.90;;;11.50;99.90;;;;;;5055664;28;20233;-90
2022/02/09 22:55:39;;;;;;;28.20;19.57;;;11.60;99.90;;;;;;5048980;28;20190;-92
2022/02/09 22:58:07;;;;;;;32.50;22.13;;;11.60;99.90;;;;;;5036925;28;20263;-93
2022/02/09 23:01:03;;;;;;;26.07;13.97;;;11.70;99.90;;;;;;5037261;28;20172;-93
2022/02/09 23:20:13;;;;;;;15.57;8.60;;;11.30;99.90;;;;;;5054148;28;20234;-92
